sensor_id;sensor_type;location;lat;lon;timestamp;temperature;humidity
40289;DHT22;28991;52.028;5.526;2023-02-28T00:02:21;16.20;41.80
40289;DHT22;28991;52.028;5.526;2023-02-28T00:04:46;16.20;41.80
40289;DHT22;28991;52.028;5.526;2023-02-28T00:07:27;16.30;41.90
40289;DHT22;28991;52.028;5.526;2023-02-28T00:09:53;15.90;41.70
40289;DHT22;28991;52.028;5.526;2023-02-28T00:12:18;16.40;43.20
40289;DHT22;28991;52.028;5.526;2023-02-28T00:14:44;16.60;42.10
40289;DHT22;28991;52.028;5.526;2023-02-28T00:17:09;16.20;41.90
40289;DHT22;28991;52.028;5.526;2023-02-28T00:19:35;16.50;42.00
40289;DHT22;28991;52.028;5.526;2023-02-28T00:22:01;16.20;41.90
40289;DHT22;28991;52.028;5.526;2023-02-28T00:24:26;16.20;41.90
40289;DHT22;28991;52.028;5.526;2023-02-28T00:26:52;16.10;43.10
40289;DHT22;28991;52.028;5.526;2023-02-28T00:29:17;16.30;42.00
40289;DHT22;28991;52.028;5.526;2023-02-28T00:31:43;16.30;42.00
40289;DHT22;28991;52.028;5.526;2023-02-28T00:34:08;16.20;41.90
40289;DHT22;28991;52.028;5.526;2023-02-28T00:36:34;15.90;41.80
40289;DHT22;28991;52.028;5.526;2023-02-28T00:38:59;16.60;42.20
40289;DHT22;28991;52.028;5.526;2023-02-28T00:41:25;15.60;41.60
40289;DHT22;28991;52.028;5.526;2023-02-28T00:43:51;16.40;42.00
40289;DHT22;28991;52.028;5.526;2023-02-28T00:46:17;16.40;42.00
40289;DHT22;28991;52.028;5.526;2023-02-28T00:48:42;16.20;42.00
40289;DHT22;28991;52.028;5.526;2023-02-28T00:51:08;16.10;41.90
40289;DHT22;28991;52.028;5.526;2023-02-28T00:53:34;17.00;42.40
40289;DHT22;28991;52.028;5.526;2023-02-28T00:56:00;15.90;43.10
40289;DHT22;28991;52.028;5.526;2023-02-28T00:58:26;15.70;41.70
40289;DHT22;28991;52.028;5.526;2023-02-28T01:00:52;16.20;42.00
40289;DHT22;28991;52.028;5.526;2023-02-28T01:03:19;16.10;42.40
40289;DHT22;28991;52.028;5.526;2023-02-28T01:05:46;16.20;42.00
40289;DHT22;28991;52.028;5.526;2023-02-28T01:08:12;16.50;42.10
40289;DHT22;28991;52.028;5.526;2023-02-28T01:10:39;16.40;42.10
40289;DHT22;28991;52.028;5.526;2023-02-28T01:13:04;16.10;41.90
40289;DHT22;28991;52.028;5.526;2023-02-28T01:15:30;16.20;42.00
40289;DHT22;28991;52.028;5.526;2023-02-28T01:17:57;16.20;42.00
40289;DHT22;28991;52.028;5.526;2023-02-28T01:20:23;16.10;41.90
40289;DHT22;28991;52.028;5.526;2023-02-28T01:22:48;16.20;42.00
40289;DHT22;28991;52.028;5.526;2023-02-28T01:25:14;16.10;42.00
40289;DHT22;28991;52.028;5.526;2023-02-28T01:27:40;16.00;43.00
40289;DHT22;28991;52.028;5.526;2023-02-28T01:30:07;16.10;42.00
40289;DHT22;28991;52.028;5.526;2023-02-28T01:32:33;16.10;42.00
40289;DHT22;28991;52.028;5.526;2023-02-28T01:34:58;16.20;42.00
40289;DHT22;28991;52.028;5.526;2023-02-28T01:37:24;16.10;42.00
40289;DHT22;28991;52.028;5.526;2023-02-28T01:39:49;16.30;42.00
40289;DHT22;28991;52.028;5.526;2023-02-28T01:42:15;16.10;42.00
40289;DHT22;28991;52.028;5.526;2023-02-28T01:45:04;16.10;41.90
40289;DHT22;28991;52.028;5.526;2023-02-28T01:47:38;15.60;42.80
40289;DHT22;28991;52.028;5.526;2023-02-28T01:50:08;17.10;42.50
40289;DHT22;28991;52.028;5.526;2023-02-28T01:52:35;16.10;42.00
40289;DHT22;28991;52.028;5.526;2023-02-28T01:55:02;16.10;42.50
40289;DHT22;28991;52.028;5.526;2023-02-28T01:57:33;16.00;41.90
40289;DHT22;28991;52.028;5.526;2023-02-28T02:02:35;16.10;41.90
40289;DHT22;28991;52.028;5.526;2023-02-28T02:05:10;16.20;42.10
40289;DHT22;28991;52.028;5.526;2023-02-28T02:07:38;16.20;42.00
40289;DHT22;28991;52.028;5.526;2023-02-28T02:13:14;16.00;41.90
40289;DHT22;28991;52.028;5.526;2023-02-28T02:15:45;16.10;42.00
40289;DHT22;28991;52.028;5.526;2023-02-28T02:31:55;16.00;41.90
40289;DHT22;28991;52.028;5.526;2023-02-28T02:45:41;16.10;42.00
40289;DHT22;28991;52.028;5.526;2023-02-28T02:48:10;16.00;42.00
40289;DHT22;28991;52.028;5.526;2023-02-28T02:50:42;16.10;42.00
40289;DHT22;28991;52.028;5.526;2023-02-28T02:53:10;16.00;42.00
40289;DHT22;28991;52.028;5.526;2023-02-28T02:55:41;16.10;42.00
40289;DHT22;28991;52.028;5.526;2023-02-28T02:58:16;16.10;42.00
40289;DHT22;28991;52.028;5.526;2023-02-28T03:00:47;16.10;42.00
40289;DHT22;28991;52.028;5.526;2023-02-28T03:03:16;16.40;43.20
40289;DHT22;28991;52.028;5.526;2023-02-28T03:05:49;16.00;42.00
40289;DHT22;28991;52.028;5.526;2023-02-28T03:08:16;16.10;42.00
40289;DHT22;28991;52.028;5.526;2023-02-28T03:10:43;16.50;42.20
40289;DHT22;28991;52.028;5.526;2023-02-28T03:16:43;16.20;42.10
40289;DHT22;28991;52.028;5.526;2023-02-28T03:23:26;16.00;42.00
40289;DHT22;28991;52.028;5.526;2023-02-28T03:25:32;15.90;41.90
40289;DHT22;28991;52.028;5.526;2023-02-28T03:28:15;16.10;42.00
40289;DHT22;28991;52.028;5.526;2023-02-28T03:31:10;16.20;42.10
40289;DHT22;28991;52.028;5.526;2023-02-28T03:34:03;16.00;42.00
40289;DHT22;28991;52.028;5.526;2023-02-28T03:36:36;16.10;42.10
40289;DHT22;28991;52.028;5.526;2023-02-28T03:42:09;16.50;42.30
40289;DHT22;28991;52.028;5.526;2023-02-28T03:44:43;16.00;42.00
40289;DHT22;28991;52.028;5.526;2023-02-28T03:47:13;16.00;42.00
40289;DHT22;28991;52.028;5.526;2023-02-28T03:49:48;16.10;42.10
40289;DHT22;28991;52.028;5.526;2023-02-28T03:52:15;16.30;43.40
40289;DHT22;28991;52.028;5.526;2023-02-28T03:54:49;16.00;42.10
40289;DHT22;28991;52.028;5.526;2023-02-28T03:57:39;16.40;42.20
40289;DHT22;28991;52.028;5.526;2023-02-28T04:00:14;16.30;42.20
40289;DHT22;28991;52.028;5.526;2023-02-28T04:02:43;16.00;42.10
40289;DHT22;28991;52.028;5.526;2023-02-28T04:05:08;16.00;42.60
40289;DHT22;28991;52.028;5.526;2023-02-28T04:07:34;16.00;42.00
40289;DHT22;28991;52.028;5.526;2023-02-28T04:10:00;16.00;42.10
40289;DHT22;28991;52.028;5.526;2023-02-28T04:12:26;16.80;42.50
40289;DHT22;28991;52.028;5.526;2023-02-28T04:14:51;16.40;42.20
40289;DHT22;28991;52.028;5.526;2023-02-28T04:17:17;16.40;43.30
40289;DHT22;28991;52.028;5.526;2023-02-28T04:19:43;15.20;42.80
40289;DHT22;28991;52.028;5.526;2023-02-28T04:22:09;16.70;42.40
40289;DHT22;28991;52.028;5.526;2023-02-28T04:24:36;16.00;42.10
40289;DHT22;28991;52.028;5.526;2023-02-28T04:27:02;16.30;42.20
40289;DHT22;28991;52.028;5.526;2023-02-28T04:29:30;16.40;43.50
40289;DHT22;28991;52.028;5.526;2023-02-28T04:31:57;16.00;42.10
40289;DHT22;28991;52.028;5.526;2023-02-28T04:34:23;16.00;42.10
40289;DHT22;28991;52.028;5.526;2023-02-28T04:36:49;16.00;42.00
40289;DHT22;28991;52.028;5.526;2023-02-28T04:39:16;16.00;42.10
40289;DHT22;28991;52.028;5.526;2023-02-28T04:41:44;16.00;42.10
40289;DHT22;28991;52.028;5.526;2023-02-28T04:44:10;15.90;42.00
40289;DHT22;28991;52.028;5.526;2023-02-28T04:46:36;16.40;42.30
40289;DHT22;28991;52.028;5.526;2023-02-28T04:49:01;16.30;43.40
40289;DHT22;28991;52.028;5.526;2023-02-28T04:51:27;16.00;42.10
40289;DHT22;28991;52.028;5.526;2023-02-28T04:53:53;16.00;42.10
40289;DHT22;28991;52.028;5.526;2023-02-28T04:56:19;16.70;42.50
40289;DHT22;28991;52.028;5.526;2023-02-28T04:58:46;16.20;42.20
40289;DHT22;28991;52.028;5.526;2023-02-28T05:01:19;16.00;43.30
40289;DHT22;28991;52.028;5.526;2023-02-28T05:03:45;16.00;42.10
40289;DHT22;28991;52.028;5.526;2023-02-28T05:06:11;16.10;42.20
40289;DHT22;28991;52.028;5.526;2023-02-28T05:08:38;15.90;42.00
40289;DHT22;28991;52.028;5.526;2023-02-28T05:11:05;16.10;43.50
40289;DHT22;28991;52.028;5.526;2023-02-28T05:13:31;16.10;42.20
40289;DHT22;28991;52.028;5.526;2023-02-28T05:15:56;15.60;41.90
40289;DHT22;28991;52.028;5.526;2023-02-28T05:18:22;16.00;42.20
40289;DHT22;28991;52.028;5.526;2023-02-28T05:20:48;16.30;42.30
40289;DHT22;28991;52.028;5.526;2023-02-28T05:23:14;15.80;43.20
40289;DHT22;28991;52.028;5.526;2023-02-28T05:25:41;15.90;42.10
40289;DHT22;28991;52.028;5.526;2023-02-28T05:28:07;16.80;42.60
40289;DHT22;28991;52.028;5.526;2023-02-28T05:30:32;16.00;42.20
40289;DHT22;28991;52.028;5.526;2023-02-28T05:32:58;16.00;42.20
40289;DHT22;28991;52.028;5.526;2023-02-28T05:35:24;16.00;42.20
40289;DHT22;28991;52.028;5.526;2023-02-28T05:37:50;15.00;42.80
40289;DHT22;28991;52.028;5.526;2023-02-28T05:40:16;16.30;42.40
40289;DHT22;28991;52.028;5.526;2023-02-28T05:42:42;15.90;42.20
40289;DHT22;28991;52.028;5.526;2023-02-28T05:45:08;15.90;42.20
40289;DHT22;28991;52.028;5.526;2023-02-28T05:47:34;16.00;43.30
40289;DHT22;28991;52.028;5.526;2023-02-28T05:50:00;16.10;42.30
40289;DHT22;28991;52.028;5.526;2023-02-28T05:52:26;15.90;42.20
40289;DHT22;28991;52.028;5.526;2023-02-28T05:54:52;15.80;42.20
40289;DHT22;28991;52.028;5.526;2023-02-28T05:57:17;15.90;42.20
40289;DHT22;28991;52.028;5.526;2023-02-28T05:59:43;15.90;42.20
40289;DHT22;28991;52.028;5.526;2023-02-28T06:02:17;15.80;42.20
40289;DHT22;28991;52.028;5.526;2023-02-28T06:04:44;15.90;42.20
40289;DHT22;28991;52.028;5.526;2023-02-28T06:07:10;15.40;41.90
40289;DHT22;28991;52.028;5.526;2023-02-28T06:09:36;15.90;42.20
40289;DHT22;28991;52.028;5.526;2023-02-28T06:12:04;15.80;42.20
40289;DHT22;28991;52.028;5.526;2023-02-28T06:14:31;16.10;43.50
40289;DHT22;28991;52.028;5.526;2023-02-28T06:16:58;16.20;43.50
40289;DHT22;28991;52.028;5.526;2023-02-28T06:19:24;15.90;42.20
40289;DHT22;28991;52.028;5.526;2023-02-28T06:21:54;15.90;42.20
40289;DHT22;28991;52.028;5.526;2023-02-28T06:24:23;16.90;43.40
40289;DHT22;28991;52.028;5.526;2023-02-28T06:26:49;15.80;42.20
40289;DHT22;28991;52.028;5.526;2023-02-28T06:29:15;16.80;42.70
40289;DHT22;28991;52.028;5.526;2023-02-28T06:31:42;16.10;42.30
40289;DHT22;28991;52.028;5.526;2023-02-28T06:34:09;16.30;43.60
40289;DHT22;28991;52.028;5.526;2023-02-28T06:36:40;16.10;43.50
40289;DHT22;28991;52.028;5.526;2023-02-28T06:39:06;15.90;42.30
40289;DHT22;28991;52.028;5.526;2023-02-28T06:41:32;15.90;42.30
40289;DHT22;28991;52.028;5.526;2023-02-28T06:44:11;15.90;42.30
40289;DHT22;28991;52.028;5.526;2023-02-28T06:46:39;15.90;42.30
40289;DHT22;28991;52.028;5.526;2023-02-28T06:49:06;16.00;42.30
40289;DHT22;28991;52.028;5.526;2023-02-28T06:51:34;15.90;42.30
40289;DHT22;28991;52.028;5.526;2023-02-28T06:54:00;16.00;42.30
40289;DHT22;28991;52.028;5.526;2023-02-28T06:56:25;15.90;42.30
40289;DHT22;28991;52.028;5.526;2023-02-28T06:58:51;15.90;42.30
40289;DHT22;28991;52.028;5.526;2023-02-28T07:01:18;15.70;43.30
40289;DHT22;28991;52.028;5.526;2023-02-28T07:03:45;15.80;42.20
40289;DHT22;28991;52.028;5.526;2023-02-28T07:06:11;15.50;42.60
40289;DHT22;28991;52.028;5.526;2023-02-28T07:08:36;15.30;42.00
40289;DHT22;28991;52.028;5.526;2023-02-28T07:11:02;15.90;42.30
40289;DHT22;28991;52.028;5.526;2023-02-28T07:13:28;15.90;42.30
40289;DHT22;28991;52.028;5.526;2023-02-28T07:15:56;15.80;42.20
40289;DHT22;28991;52.028;5.526;2023-02-28T07:18:21;15.80;42.80
40289;DHT22;28991;52.028;5.526;2023-02-28T07:20:47;15.90;42.30
40289;DHT22;28991;52.028;5.526;2023-02-28T07:23:13;16.00;42.30
40289;DHT22;28991;52.028;5.526;2023-02-28T07:25:38;15.90;42.30
40289;DHT22;28991;52.028;5.526;2023-02-28T07:28:04;16.00;42.30
40289;DHT22;28991;52.028;5.526;2023-02-28T07:30:30;16.00;42.30
40289;DHT22;28991;52.028;5.526;2023-02-28T07:32:56;16.20;42.40
40289;DHT22;28991;52.028;5.526;2023-02-28T07:35:22;16.40;43.70
40289;DHT22;28991;52.028;5.526;2023-02-28T07:37:48;15.90;43.20
40289;DHT22;28991;52.028;5.526;2023-02-28T07:40:14;15.80;42.10
40289;DHT22;28991;52.028;5.526;2023-02-28T07:42:40;16.60;43.60
40289;DHT22;28991;52.028;5.526;2023-02-28T07:45:07;16.10;42.20
40289;DHT22;28991;52.028;5.526;2023-02-28T07:47:33;16.00;42.10
40289;DHT22;28991;52.028;5.526;2023-02-28T07:49:59;16.10;42.10
40289;DHT22;28991;52.028;5.526;2023-02-28T07:52:25;16.00;42.00
40289;DHT22;28991;52.028;5.526;2023-02-28T07:54:51;16.10;43.10
40289;DHT22;28991;52.028;5.526;2023-02-28T07:57:17;16.10;43.20
40289;DHT22;28991;52.028;5.526;2023-02-28T07:59:43;15.90;42.00
40289;DHT22;28991;52.028;5.526;2023-02-28T08:02:14;16.00;42.00
40289;DHT22;28991;52.028;5.526;2023-02-28T08:04:39;16.10;42.00
40289;DHT22;28991;52.028;5.526;2023-02-28T08:07:05;16.30;42.10
40289;DHT22;28991;52.028;5.526;2023-02-28T08:09:31;16.30;42.10
40289;DHT22;28991;52.028;5.526;2023-02-28T08:11:57;17.10;42.60
40289;DHT22;28991;52.028;5.526;2023-02-28T08:14:22;15.90;41.50
40289;DHT22;28991;52.028;5.526;2023-02-28T08:16:48;16.10;42.10
40289;DHT22;28991;52.028;5.526;2023-02-28T08:19:16;16.70;42.30
40289;DHT22;28991;52.028;5.526;2023-02-28T08:21:42;16.20;42.10
40289;DHT22;28991;52.028;5.526;2023-02-28T08:24:08;17.30;43.80
40289;DHT22;28991;52.028;5.526;2023-02-28T08:26:33;15.50;42.80
40289;DHT22;28991;52.028;5.526;2023-02-28T08:28:59;16.10;42.00
40289;DHT22;28991;52.028;5.526;2023-02-28T08:31:24;16.40;42.10
40289;DHT22;28991;52.028;5.526;2023-02-28T08:33:50;16.30;43.20
40289;DHT22;28991;52.028;5.526;2023-02-28T08:36:18;16.10;41.90
40289;DHT22;28991;52.028;5.526;2023-02-28T08:38:44;16.10;41.90
40289;DHT22;28991;52.028;5.526;2023-02-28T08:41:12;16.20;41.80
40289;DHT22;28991;52.028;5.526;2023-02-28T08:43:38;16.00;42.80
40289;DHT22;28991;52.028;5.526;2023-02-28T08:46:05;16.40;41.70
40289;DHT22;28991;52.028;5.526;2023-02-28T08:48:33;16.50;41.70
40289;DHT22;28991;52.028;5.526;2023-02-28T08:51:04;17.10;41.90
40289;DHT22;28991;52.028;5.526;2023-02-28T08:53:30;16.60;41.50
40289;DHT22;28991;52.028;5.526;2023-02-28T08:56:01;16.90;41.50
40289;DHT22;28991;52.028;5.526;2023-02-28T08:58:27;17.70;41.70
40289;DHT22;28991;52.028;5.526;2023-02-28T09:00:53;16.90;41.10
40289;DHT22;28991;52.028;5.526;2023-02-28T09:03:20;17.50;42.60
40289;DHT22;28991;52.028;5.526;2023-02-28T09:08:18;17.20;40.80
40289;DHT22;28991;52.028;5.526;2023-02-28T09:10:43;17.30;40.60
40289;DHT22;28991;52.028;5.526;2023-02-28T09:13:09;17.40;40.50
40289;DHT22;28991;52.028;5.526;2023-02-28T09:15:37;17.40;40.40
40289;DHT22;28991;52.028;5.526;2023-02-28T09:18:03;17.50;40.30
40289;DHT22;28991;52.028;5.526;2023-02-28T09:20:28;17.70;42.10
40289;DHT22;28991;52.028;5.526;2023-02-28T09:22:54;18.40;40.50
40289;DHT22;28991;52.028;5.526;2023-02-28T09:25:19;18.00;42.30
40289;DHT22;28991;52.028;5.526;2023-02-28T09:27:45;17.70;39.90
40289;DHT22;28991;52.028;5.526;2023-02-28T09:30:11;17.80;39.70
40289;DHT22;28991;52.028;5.526;2023-02-28T09:32:37;17.60;41.70
40289;DHT22;28991;52.028;5.526;2023-02-28T09:35:03;18.00;41.70
40289;DHT22;28991;52.028;5.526;2023-02-28T09:37:29;17.90;39.30
40289;DHT22;28991;52.028;5.526;2023-02-28T09:39:56;18.10;39.40
40289;DHT22;28991;52.028;5.526;2023-02-28T09:42:27;18.10;39.30
40289;DHT22;28991;52.028;5.526;2023-02-28T09:44:56;18.90;39.70
40289;DHT22;28991;52.028;5.526;2023-02-28T09:47:37;18.20;39.10
40289;DHT22;28991;52.028;5.526;2023-02-28T09:50:30;18.10;39.00
40289;DHT22;28991;52.028;5.526;2023-02-28T09:52:59;17.70;41.30
40289;DHT22;28991;52.028;5.526;2023-02-28T09:55:33;18.40;41.60
40289;DHT22;28991;52.028;5.526;2023-02-28T09:58:02;18.90;42.00
40289;DHT22;28991;52.028;5.526;2023-02-28T10:00:39;19.20;42.20
40289;DHT22;28991;52.028;5.526;2023-02-28T10:06:07;18.50;38.60
40289;DHT22;28991;52.028;5.526;2023-02-28T10:09:00;18.50;38.60
40289;DHT22;28991;52.028;5.526;2023-02-28T10:11:27;18.50;38.50
40289;DHT22;28991;52.028;5.526;2023-02-28T10:14:26;19.00;42.10
40289;DHT22;28991;52.028;5.526;2023-02-28T10:16:58;18.70;38.50
40289;DHT22;28991;52.028;5.526;2023-02-28T10:19:35;18.50;41.60
40289;DHT22;28991;52.028;5.526;2023-02-28T10:24:46;18.80;38.00
40289;DHT22;28991;52.028;5.526;2023-02-28T10:29:47;19.00;37.60
40289;DHT22;28991;52.028;5.526;2023-02-28T10:32:22;19.10;37.30
40289;DHT22;28991;52.028;5.526;2023-02-28T10:35:01;19.30;37.00
40289;DHT22;28991;52.028;5.526;2023-02-28T10:37:31;19.30;36.60
40289;DHT22;28991;52.028;5.526;2023-02-28T10:39:57;19.80;36.30
40289;DHT22;28991;52.028;5.526;2023-02-28T10:42:27;19.80;36.10
40289;DHT22;28991;52.028;5.526;2023-02-28T10:45:06;20.00;38.50
40289;DHT22;28991;52.028;5.526;2023-02-28T10:47:33;19.80;35.30
40289;DHT22;28991;52.028;5.526;2023-02-28T10:49:59;20.00;35.10
40289;DHT22;28991;52.028;5.526;2023-02-28T10:52:35;20.50;37.80
40289;DHT22;28991;52.028;5.526;2023-02-28T10:55:34;20.20;34.60
40289;DHT22;28991;52.028;5.526;2023-02-28T10:57:59;20.40;34.30
40289;DHT22;28991;52.028;5.526;2023-02-28T11:00:25;20.30;36.70
40289;DHT22;28991;52.028;5.526;2023-02-28T11:02:56;20.60;34.00
40289;DHT22;28991;52.028;5.526;2023-02-28T11:05:31;21.10;36.60
40289;DHT22;28991;52.028;5.526;2023-02-28T11:08:05;20.80;33.50
40289;DHT22;28991;52.028;5.526;2023-02-28T11:10:32;21.10;36.20
40289;DHT22;28991;52.028;5.526;2023-02-28T11:13:00;20.90;35.70
40289;DHT22;28991;52.028;5.526;2023-02-28T11:15:28;21.20;32.90
40289;DHT22;28991;52.028;5.526;2023-02-28T11:17:56;21.90;35.80
40289;DHT22;28991;52.028;5.526;2023-02-28T11:20:25;21.30;32.50
40289;DHT22;28991;52.028;5.526;2023-02-28T11:22:52;22.10;32.80
40289;DHT22;28991;52.028;5.526;2023-02-28T11:27:50;21.50;32.10
40289;DHT22;28991;52.028;5.526;2023-02-28T11:30:36;21.50;31.90
40289;DHT22;28991;52.028;5.526;2023-02-28T11:33:32;21.60;31.70
40289;DHT22;28991;52.028;5.526;2023-02-28T11:36:07;21.60;31.60
40289;DHT22;28991;52.028;5.526;2023-02-28T11:38:35;21.70;31.70
40289;DHT22;28991;52.028;5.526;2023-02-28T11:41:27;21.80;31.60
40289;DHT22;28991;52.028;5.526;2023-02-28T11:46:59;21.30;33.40
40289;DHT22;28991;52.028;5.526;2023-02-28T11:49:35;21.80;32.10
40289;DHT22;28991;52.028;5.526;2023-02-28T11:54:59;22.20;31.90
40289;DHT22;28991;52.028;5.526;2023-02-28T12:03:07;21.10;32.30
40289;DHT22;28991;52.028;5.526;2023-02-28T12:06:02;20.90;32.90
40289;DHT22;28991;52.028;5.526;2023-02-28T12:08:43;20.60;33.80
40289;DHT22;28991;52.028;5.526;2023-02-28T12:13:48;20.50;35.90
40289;DHT22;28991;52.028;5.526;2023-02-28T12:19:04;19.70;35.10
40289;DHT22;28991;52.028;5.526;2023-02-28T12:24:22;19.50;35.50
40289;DHT22;28991;52.028;5.526;2023-02-28T12:26:51;19.10;36.60
40289;DHT22;28991;52.028;5.526;2023-02-28T12:29:28;19.40;35.80
40289;DHT22;28991;52.028;5.526;2023-02-28T12:32:16;18.10;36.80
40289;DHT22;28991;52.028;5.526;2023-02-28T12:34:44;18.90;36.20
40289;DHT22;28991;52.028;5.526;2023-02-28T12:37:36;18.90;36.40
40289;DHT22;28991;52.028;5.526;2023-02-28T12:40:21;18.60;36.60
40289;DHT22;28991;52.028;5.526;2023-02-28T12:43:00;18.50;36.80
40289;DHT22;28991;52.028;5.526;2023-02-28T12:48:04;18.10;37.00
40289;DHT22;28991;52.028;5.526;2023-02-28T12:50:32;18.10;37.20
40289;DHT22;28991;52.028;5.526;2023-02-28T12:53:23;18.10;37.30
40289;DHT22;28991;52.028;5.526;2023-02-28T12:56:20;18.00;37.40
40289;DHT22;28991;52.028;5.526;2023-02-28T12:58:53;18.00;37.50
40289;DHT22;28991;52.028;5.526;2023-02-28T13:09:17;17.60;37.60
40289;DHT22;28991;52.028;5.526;2023-02-28T13:11:48;17.70;37.70
40289;DHT22;28991;52.028;5.526;2023-02-28T13:14:49;17.70;37.80
40289;DHT22;28991;52.028;5.526;2023-02-28T13:17:19;17.50;37.80
40289;DHT22;28991;52.028;5.526;2023-02-28T13:19:57;17.50;37.80
40289;DHT22;28991;52.028;5.526;2023-02-28T13:22:40;17.50;37.90
40289;DHT22;28991;52.028;5.526;2023-02-28T13:27:52;17.60;38.80
40289;DHT22;28991;52.028;5.526;2023-02-28T13:35:45;17.30;38.00
40289;DHT22;28991;52.028;5.526;2023-02-28T13:38:21;17.30;38.00
40289;DHT22;28991;52.028;5.526;2023-02-28T13:40:50;17.70;38.30
40289;DHT22;28991;52.028;5.526;2023-02-28T13:43:17;17.60;38.30
40289;DHT22;28991;52.028;5.526;2023-02-28T13:46:12;17.20;39.00
40289;DHT22;28991;52.028;5.526;2023-02-28T13:48:38;17.30;38.20
40289;DHT22;28991;52.028;5.526;2023-02-28T13:51:28;17.20;38.20
40289;DHT22;28991;52.028;5.526;2023-02-28T13:54:04;17.10;38.20
40289;DHT22;28991;52.028;5.526;2023-02-28T13:56:47;17.30;38.30
40289;DHT22;28991;52.028;5.526;2023-02-28T13:59:19;17.10;38.20
40289;DHT22;28991;52.028;5.526;2023-02-28T14:04:49;17.10;38.30
40289;DHT22;28991;52.028;5.526;2023-02-28T14:07:23;17.20;39.10
40289;DHT22;28991;52.028;5.526;2023-02-28T14:09:56;17.50;38.50
40289;DHT22;28991;52.028;5.526;2023-02-28T14:18:21;17.10;38.40
40289;DHT22;28991;52.028;5.526;2023-02-28T14:20:49;17.10;38.40
40289;DHT22;28991;52.028;5.526;2023-02-28T14:26:35;17.10;38.50
40289;DHT22;28991;52.028;5.526;2023-02-28T14:29:24;17.10;38.50
40289;DHT22;28991;52.028;5.526;2023-02-28T14:32:00;17.00;38.50
40289;DHT22;28991;52.028;5.526;2023-02-28T14:34:52;17.10;38.60
40289;DHT22;28991;52.028;5.526;2023-02-28T14:37:26;17.00;38.60
40289;DHT22;28991;52.028;5.526;2023-02-28T14:39:53;17.00;38.60
40289;DHT22;28991;52.028;5.526;2023-02-28T14:42:34;17.70;39.00
40289;DHT22;28991;52.028;5.526;2023-02-28T14:45:00;17.00;38.70
40289;DHT22;28991;52.028;5.526;2023-02-28T14:47:32;17.00;38.70
40289;DHT22;28991;52.028;5.526;2023-02-28T14:49:59;17.00;38.70
40289;DHT22;28991;52.028;5.526;2023-02-28T14:52:31;17.00;38.70
40289;DHT22;28991;52.028;5.526;2023-02-28T14:54:59;17.20;38.60
40289;DHT22;28991;52.028;5.526;2023-02-28T14:57:28;16.30;39.20
40289;DHT22;28991;52.028;5.526;2023-02-28T15:02:41;16.90;38.80
40289;DHT22;28991;52.028;5.526;2023-02-28T15:05:16;16.90;38.80
40289;DHT22;28991;52.028;5.526;2023-02-28T15:07:45;16.90;38.80
40289;DHT22;28991;52.028;5.526;2023-02-28T15:10:24;16.80;38.80
40289;DHT22;28991;52.028;5.526;2023-02-28T15:12:53;16.10;39.20
40289;DHT22;28991;52.028;5.526;2023-02-28T15:15:20;16.90;39.70
40289;DHT22;28991;52.028;5.526;2023-02-28T15:17:51;16.90;38.90
40289;DHT22;28991;52.028;5.526;2023-02-28T15:20:20;16.90;39.00
40289;DHT22;28991;52.028;5.526;2023-02-28T15:22:47;16.80;38.90
40289;DHT22;28991;52.028;5.526;2023-02-28T15:25:18;16.80;39.00
40289;DHT22;28991;52.028;5.526;2023-02-28T15:27:48;17.10;39.20
40289;DHT22;28991;52.028;5.526;2023-02-28T15:30:25;17.00;39.10
40289;DHT22;28991;52.028;5.526;2023-02-28T15:35:33;17.20;39.30
40289;DHT22;28991;52.028;5.526;2023-02-28T15:38:22;16.80;39.10
40289;DHT22;28991;52.028;5.526;2023-02-28T15:40:54;16.90;39.20
40289;DHT22;28991;52.028;5.526;2023-02-28T15:43:33;16.80;39.10
40289;DHT22;28991;52.028;5.526;2023-02-28T15:46:03;16.80;39.20
40289;DHT22;28991;52.028;5.526;2023-02-28T15:48:32;16.80;39.20
40289;DHT22;28991;52.028;5.526;2023-02-28T15:51:16;16.90;40.00
40289;DHT22;28991;52.028;5.526;2023-02-28T15:56:27;16.80;39.20
40289;DHT22;28991;52.028;5.526;2023-02-28T15:59:07;16.90;40.10
40289;DHT22;28991;52.028;5.526;2023-02-28T16:01:38;16.70;39.30
40289;DHT22;28991;52.028;5.526;2023-02-28T16:04:19;16.80;39.30
40289;DHT22;28991;52.028;5.526;2023-02-28T16:09:23;16.70;39.30
40289;DHT22;28991;52.028;5.526;2023-02-28T16:11:50;17.20;39.60
40289;DHT22;28991;52.028;5.526;2023-02-28T16:14:28;17.30;39.60
40289;DHT22;28991;52.028;5.526;2023-02-28T16:17:03;17.10;40.50
40289;DHT22;28991;52.028;5.526;2023-02-28T16:19:29;16.70;39.40
40289;DHT22;28991;52.028;5.526;2023-02-28T16:21:56;17.10;39.60
40289;DHT22;28991;52.028;5.526;2023-02-28T16:24:22;16.60;39.40
40289;DHT22;28991;52.028;5.526;2023-02-28T16:26:48;16.70;39.50
40289;DHT22;28991;52.028;5.526;2023-02-28T16:29:30;16.60;39.50
40289;DHT22;28991;52.028;5.526;2023-02-28T16:31:57;17.10;39.70
40289;DHT22;28991;52.028;5.526;2023-02-28T16:34:23;16.80;40.60
40289;DHT22;28991;52.028;5.526;2023-02-28T16:36:49;16.60;39.60
40289;DHT22;28991;52.028;5.526;2023-02-28T16:39:15;16.00;39.20
40289;DHT22;28991;52.028;5.526;2023-02-28T16:41:45;16.60;39.60
40289;DHT22;28991;52.028;5.526;2023-02-28T16:44:14;17.10;39.90
40289;DHT22;28991;52.028;5.526;2023-02-28T16:46:42;17.10;39.90
40289;DHT22;28991;52.028;5.526;2023-02-28T16:49:11;16.70;40.70
40289;DHT22;28991;52.028;5.526;2023-02-28T16:51:38;16.50;39.60
40289;DHT22;28991;52.028;5.526;2023-02-28T16:54:03;17.00;40.90
40289;DHT22;28991;52.028;5.526;2023-02-28T16:56:29;16.60;39.70
40289;DHT22;28991;52.028;5.526;2023-02-28T16:58:59;16.50;39.70
40289;DHT22;28991;52.028;5.526;2023-02-28T17:01:25;16.50;39.70
40289;DHT22;28991;52.028;5.526;2023-02-28T17:03:52;16.50;39.70
40289;DHT22;28991;52.028;5.526;2023-02-28T17:06:26;16.40;40.90
40289;DHT22;28991;52.028;5.526;2023-02-28T17:08:56;16.40;39.80
40289;DHT22;28991;52.028;5.526;2023-02-28T17:11:24;16.40;39.80
40289;DHT22;28991;52.028;5.526;2023-02-28T17:13:49;16.50;40.90
40289;DHT22;28991;52.028;5.526;2023-02-28T17:16:36;16.50;39.90
40289;DHT22;28991;52.028;5.526;2023-02-28T17:19:04;16.60;40.10
40289;DHT22;28991;52.028;5.526;2023-02-28T17:21:31;16.30;39.90
40289;DHT22;28991;52.028;5.526;2023-02-28T17:23:58;16.50;40.00
40289;DHT22;28991;52.028;5.526;2023-02-28T17:26:27;16.60;40.10
40289;DHT22;28991;52.028;5.526;2023-02-28T17:28:54;16.40;40.10
40289;DHT22;28991;52.028;5.526;2023-02-28T17:31:21;16.70;40.20
40289;DHT22;28991;52.028;5.526;2023-02-28T17:33:47;16.30;40.10
40289;DHT22;28991;52.028;5.526;2023-02-28T17:36:15;16.40;40.10
40289;DHT22;28991;52.028;5.526;2023-02-28T17:38:41;16.70;41.60
40289;DHT22;28991;52.028;5.526;2023-02-28T17:41:11;16.30;40.10
40289;DHT22;28991;52.028;5.526;2023-02-28T17:43:37;16.40;40.20